Time;durP1;ratioP1;P1;durP2;ratioP2;P2;SDS_P1;SDS_P2;PMS_P1;PMS_P2;Temp;Humidity;BMP_temperature;BMP_pressure;BME280_temperature;BME280_humidity;BME280_pressure;Samples;Min_cycle;Max_cycle;Signal;HPM_P1;HPM_P2
2022/06/07 00:01:00;;;;;;;9.98;4.10;;;;;;;10.99;100.00;101010.94;5045541;28;20106;-80
2022/06/07 00:03:26;;;;;;;8.98;4.60;;;;;;;10.98;100.00;101005.72;5017012;28;20254;-80
2022/06/07 00:05:52;;;;;;;8.98;3.70;;;;;;;10.98;100.00;101005.72;5043283;28;20029;-82
2022/06/07 00:08:18;;;;;;;9.18;4.78;;;;;;;11.00;100.00;100994.13;5041217;28;20368;-80
2022/06/07 00:10:45;;;;;;;7.47;4.25;;;;;;;10.99;100.00;100995.06;5051160;28;20035;-80
2022/06/07 00:13:11;;;;;;;8.27;4.30;;;;;;;10.99;100.00;100987.09;5055727;28;20036;-81
2022/06/07 00:15:38;;;;;;;5.75;3.70;;;;;;;11.00;100.00;100990.59;5046856;28;20028;-80
2022/06/07 00:18:04;;;;;;;7.15;3.47;;;;;;;11.01;100.00;100992.34;5015882;28;20035;-81
2022/06/07 00:20:29;;;;;;;6.43;3.90;;;;;;;11.02;100.00;100972.88;5041281;28;20036;-81
2022/06/07 00:22:55;;;;;;;5.93;3.97;;;;;;;11.03;100.00;100992.25;5042680;28;20064;-80
2022/06/07 00:25:21;;;;;;;5.55;3.80;;;;;;;11.03;100.00;100984.31;5033993;28;20056;-77
2022/06/07 00:27:47;;;;;;;8.10;3.80;;;;;;;11.04;100.00;100986.88;5040535;28;20151;-79
2022/06/07 00:30:13;;;;;;;6.15;3.55;;;;;;;11.04;100.00;100975.41;5038443;28;20033;-80
2022/06/07 00:32:39;;;;;;;6.53;3.42;;;;;;;11.04;100.00;100972.78;5041607;28;20058;-80
2022/06/07 00:35:05;;;;;;;6.07;3.53;;;;;;;11.01;100.00;100973.78;5042651;28;20021;-78
2022/06/07 00:37:31;;;;;;;6.85;3.88;;;;;;;11.02;100.00;100972.00;5039078;28;20041;-79
2022/06/07 00:39:56;;;;;;;8.60;3.90;;;;;;;11.02;100.00;100974.63;5046829;28;20074;-79
2022/06/07 00:42:22;;;;;;;6.20;4.05;;;;;;;11.02;100.00;100972.00;5018067;28;20351;-79
2022/06/07 00:44:47;;;;;;;10.45;4.95;;;;;;;11.03;100.00;100960.47;5042081;28;20205;-78
2022/06/07 00:47:17;;;;;;;6.38;4.20;;;;;;;11.04;100.00;100956.88;5043118;28;20043;-79
2022/06/07 00:49:50;;;;;;;8.40;4.47;;;;;;;11.04;100.00;100964.81;5021735;28;20028;-79
2022/06/07 00:52:17;;;;;;;8.93;4.18;;;;;;;11.05;100.00;100961.25;5036148;28;20035;-79
2022/06/07 00:54:43;;;;;;;8.10;4.22;;;;;;;11.04;100.00;100954.22;5040274;28;20093;-79
2022/06/07 00:57:09;;;;;;;7.20;3.88;;;;;;;11.05;100.00;100950.66;5045447;28;20040;-78
2022/06/07 00:59:35;;;;;;;8.10;4.20;;;;;;;11.08;100.00;100947.88;5043170;28;20150;-77
2022/06/07 01:02:00;;;;;;;8.85;4.18;;;;;;;11.07;100.00;100951.44;5034534;28;20037;-78
2022/06/07 01:04:27;;;;;;;7.70;4.25;;;;;;;11.07;100.00;100949.66;5039896;28;20032;-78
2022/06/07 01:12:25;;;;;;;6.43;4.20;;;;;;;11.07;100.00;100944.34;5036228;28;20036;-80
2022/06/07 01:14:51;;;;;;;10.68;4.50;;;;;;;11.07;100.00;100939.03;5036346;28;20081;-79
2022/06/07 01:17:17;;;;;;;9.77;4.70;;;;;;;11.07;100.00;100943.50;5044773;28;20052;-78
2022/06/07 01:19:43;;;;;;;5.38;3.97;;;;;;;11.05;100.00;100935.63;5016782;28;20045;-78
2022/06/07 01:22:09;;;;;;;7.30;4.97;;;;;;;11.06;100.00;100939.13;5042512;28;20040;-78
2022/06/07 01:24:36;;;;;;;5.25;3.92;;;;;;;11.04;100.00;100933.91;5025471;28;20095;-79
2022/06/07 01:27:02;;;;;;;6.38;4.00;;;;;;;11.07;100.00;100935.56;5042537;28;20490;-79
2022/06/07 01:29:28;;;;;;;7.90;4.25;;;;;;;11.07;100.00;100940.84;5045866;28;20044;-79
2022/06/07 01:31:53;;;;;;;10.13;4.32;;;;;;;11.10;100.00;100938.03;5043286;28;20691;-78
2022/06/07 01:34:19;;;;;;;7.10;4.38;;;;;;;11.09;100.00;100939.84;5037966;28;20113;-78
2022/06/07 01:36:44;;;;;;;6.63;4.50;;;;;;;11.10;100.00;100932.75;5044529;28;20040;-79
2022/06/07 01:41:54;;;;;;;7.70;4.38;;;;;;;11.11;100.00;100914.13;5042281;28;20037;-77
2022/06/07 01:44:49;;;;;;;7.13;4.32;;;;;;;11.13;100.00;100922.03;5044239;28;20056;-79
2022/06/07 01:47:21;;;;;;;5.85;4.25;;;;;;;11.13;100.00;100922.88;5034283;28;20102;-78
2022/06/07 01:49:47;;;;;;;5.68;4.60;;;;;;;11.14;100.00;100918.44;5034613;28;20028;-79
2022/06/07 01:52:15;;;;;;;6.28;4.15;;;;;;;11.13;100.00;100911.44;5044719;28;20902;-78
2022/06/07 01:54:41;;;;;;;8.60;4.18;;;;;;;11.14;100.00;100913.13;5022324;28;20060;-77
2022/06/07 01:57:07;;;;;;;6.22;4.43;;;;;;;11.15;100.00;100917.50;5041881;28;20120;-78
2022/06/07 01:59:34;;;;;;;5.72;4.05;;;;;;;11.16;100.00;100911.28;5041835;28;20056;-78
2022/06/07 02:01:59;;;;;;;6.22;4.00;;;;;;;11.16;100.00;100908.63;5040635;28;20036;-78
2022/06/07 02:04:25;;;;;;;6.60;3.83;;;;;;;11.18;100.00;100898.81;5043500;28;20113;-79
2022/06/07 02:06:51;;;;;;;5.85;4.30;;;;;;;11.19;100.00;100903.19;5012933;28;20641;-78
2022/06/07 02:09:17;;;;;;;8.82;4.97;;;;;;;11.19;100.00;100903.19;5027133;28;20047;-79
2022/06/07 02:11:43;;;;;;;8.02;4.53;;;;;;;11.18;100.00;100909.44;5036334;28;20021;-79
2022/06/07 02:14:09;;;;;;;6.60;4.20;;;;;;;11.18;100.00;100908.56;5038289;28;20056;-78
2022/06/07 02:16:35;;;;;;;8.35;4.10;;;;;;;11.17;100.00;100910.34;5017776;28;20063;-78
2022/06/07 02:19:01;;;;;;;7.68;3.88;;;;;;;11.17;100.00;100902.38;5041628;28;20120;-78
2022/06/07 02:21:26;;;;;;;5.32;3.78;;;;;;;11.18;100.00;100893.53;5032868;28;20479;-77
2022/06/07 02:23:52;;;;;;;6.53;3.85;;;;;;;11.20;100.00;100896.09;5040755;28;20055;-77
2022/06/07 02:26:30;;;;;;;9.90;3.72;;;;;;;11.18;100.00;100896.19;5038829;28;20033;-78
2022/06/07 02:29:00;;;;;;;7.97;4.30;;;;;;;11.18;100.00;100897.97;5043957;28;20056;-78
2022/06/07 02:31:27;;;;;;;6.28;4.57;;;;;;;11.16;100.00;100892.72;5029096;28;20086;-77
2022/06/07 02:33:53;;;;;;;7.72;3.67;;;;;;;11.16;100.00;100900.66;5017792;28;20033;-79
2022/06/07 02:36:19;;;;;;;8.55;4.18;;;;;;;11.17;100.00;100896.25;5042523;28;20487;-79
2022/06/07 02:38:45;;;;;;;7.10;3.78;;;;;;;11.17;100.00;100896.25;5041946;28;20048;-79
2022/06/07 02:41:13;;;;;;;6.20;4.10;;;;;;;11.17;100.00;100897.09;5029756;28;20499;-79
2022/06/07 02:43:39;;;;;;;7.85;3.88;;;;;;;11.16;100.00;100874.16;5039576;28;20119;-78
2022/06/07 02:46:04;;;;;;;7.97;3.42;;;;;;;11.13;100.00;100904.31;5038337;28;20039;-80
2022/06/07 02:48:30;;;;;;;5.57;3.40;;;;;;;11.07;100.00;100903.75;5039487;28;20188;-78
2022/06/07 02:50:55;;;;;;;5.35;3.80;;;;;;;11.00;100.00;100893.44;5012230;28;20047;-78
2022/06/07 02:53:21;;;;;;;8.10;3.67;;;;;;;10.94;100.00;100895.50;5039291;28;20506;-79
2022/06/07 02:55:47;;;;;;;6.85;3.70;;;;;;;10.85;100.00;100902.09;5039203;28;20037;-78
2022/06/07 02:58:12;;;;;;;6.47;3.80;;;;;;;10.73;100.00;100899.09;5054548;28;20137;-80
2022/06/07 03:00:38;;;;;;;6.22;3.67;;;;;;;10.63;100.00;100903.09;5044115;28;20071;-80
2022/06/07 03:03:04;;;;;;;9.32;4.43;;;;;;;10.53;100.00;100899.13;5029489;28;20059;-79
2022/06/07 03:05:29;;;;;;;6.57;4.03;;;;;;;10.44;100.00;100898.59;5038710;28;20059;-78
2022/06/07 03:07:55;;;;;;;6.15;3.50;;;;;;;10.37;100.00;100897.13;5019412;28;20040;-80
2022/06/07 03:10:20;;;;;;;7.35;4.25;;;;;;;10.32;100.00;100901.75;5041453;28;20070;-81
2022/06/07 03:12:46;;;;;;;12.10;4.28;;;;;;;10.26;100.00;100894.94;5042491;28;20032;-82
2022/06/07 03:15:12;;;;;;;8.95;4.05;;;;;;;10.22;100.00;100900.41;5033615;28;20038;-79
2022/06/07 03:17:39;;;;;;;6.07;3.50;;;;;;;10.13;100.00;100913.09;5044497;28;20215;-81
2022/06/07 03:20:06;;;;;;;5.28;3.42;;;;;;;10.05;100.00;100905.53;5038711;28;20054;-79
2022/06/07 03:22:32;;;;;;;8.00;3.55;;;;;;;9.97;100.00;100901.47;5031877;28;20360;-80
2022/06/07 03:25:01;;;;;;;12.18;4.10;;;;;;;9.91;100.00;100906.09;5040854;28;20041;-79
2022/06/07 03:27:27;;;;;;;7.45;3.40;;;;;;;9.85;100.00;100908.97;5041324;28;20483;-80
2022/06/07 03:29:52;;;;;;;9.48;3.78;;;;;;;9.82;100.00;100898.53;5039509;28;20073;-79
2022/06/07 03:32:18;;;;;;;7.88;3.75;;;;;;;9.79;100.00;100909.22;5016020;28;20029;-79
2022/06/07 03:34:44;;;;;;;7.00;3.58;;;;;;;9.78;100.00;100907.53;5016130;28;20348;-80
2022/06/07 03:37:09;;;;;;;5.82;3.72;;;;;;;9.76;100.00;100902.28;5041690;28;20032;-79
2022/06/07 03:39:35;;;;;;;9.38;3.42;;;;;;;9.74;100.00;100898.84;5039260;28;20116;-80
2022/06/07 03:42:01;;;;;;;10.25;4.10;;;;;;;9.74;100.00;100904.13;5039296;28;20035;-81
2022/06/07 03:44:27;;;;;;;9.85;3.97;;;;;;;9.75;100.00;100902.38;5041351;28;20033;-79
2022/06/07 03:46:53;;;;;;;9.55;4.07;;;;;;;9.78;100.00;100905.75;5042529;28;20043;-80
2022/06/07 03:49:18;;;;;;;8.60;3.97;;;;;;;9.80;100.00;100907.47;5037522;28;20032;-79
2022/06/07 03:51:44;;;;;;;9.90;4.47;;;;;;;9.81;100.00;100904.72;5030766;28;20434;-79
2022/06/07 03:54:10;;;;;;;7.47;3.95;;;;;;;9.84;100.00;100909.91;5048186;28;20032;-80
2022/06/07 03:56:36;;;;;;;10.52;4.80;;;;;;;9.89;100.00;100907.94;5045022;28;20032;-79
2022/06/07 03:59:01;;;;;;;9.35;4.40;;;;;;;9.92;100.00;100914.91;5035779;28;20041;-80
2022/06/07 04:01:28;;;;;;;10.38;3.75;;;;;;;9.94;100.00;100910.41;5046405;28;20108;-78
2022/06/07 04:03:56;;;;;;;6.88;4.00;;;;;;;9.96;100.00;100915.63;5031708;28;21316;-79
2022/06/07 04:06:24;;;;;;;7.07;3.88;;;;;;;9.98;100.00;100905.84;5042220;28;20064;-79
2022/06/07 04:08:50;;;;;;;7.22;3.40;;;;;;;9.96;100.00;100919.13;5027364;28;20053;-79
2022/06/07 04:11:20;;;;;;;7.78;3.50;;;;;;;9.98;100.00;100913.78;5043418;28;20166;-79
2022/06/07 04:13:45;;;;;;;8.40;3.53;;;;;;;9.98;100.00;100914.59;5043082;28;21118;-80
2022/06/07 04:16:14;;;;;;;9.43;3.35;;;;;;;9.99;100.00;100910.19;5042626;28;20037;-80
2022/06/07 04:18:40;;;;;;;4.15;2.78;;;;;;;10.00;100.00;100907.50;5044564;28;20502;-81
2022/06/07 04:21:06;;;;;;;7.20;3.08;;;;;;;10.02;100.00;100913.56;5034354;28;20044;-80
2022/06/07 04:23:32;;;;;;;5.85;3.22;;;;;;;10.03;100.00;100909.16;5042056;28;20032;-80
2022/06/07 04:26:14;;;;;;;6.05;2.53;;;;;;;10.05;100.00;100915.22;5043942;28;20028;-80
2022/06/07 04:28:40;;;;;;;4.63;2.67;;;;;;;10.07;100.00;100910.72;5033968;28;20033;-78
2022/06/07 04:31:15;;;;;;;7.72;2.95;;;;;;;10.09;100.00;100908.91;5042524;28;20070;-80
2022/06/07 04:33:42;;;;;;;6.95;2.83;;;;;;;10.11;100.00;100909.69;5042001;28;20583;-78
2022/06/07 04:36:12;;;;;;;5.15;2.80;;;;;;;10.12;100.00;100906.09;5042934;28;20107;-80
2022/06/07 04:38:39;;;;;;;6.38;3.10;;;;;;;10.14;100.00;100912.19;5021356;28;20119;-79
2022/06/07 04:41:14;;;;;;;5.75;3.40;;;;;;;10.17;100.00;100921.78;5043388;28;20444;-78
2022/06/07 04:43:40;;;;;;;4.10;3.00;;;;;;;10.18;100.00;100916.44;5044965;28;20036;-79
2022/06/07 04:46:08;;;;;;;6.32;3.60;;;;;;;10.22;100.00;100918.94;5044093;28;20049;-80
2022/06/07 04:48:35;;;;;;;6.10;3.60;;;;;;;10.23;100.00;100908.28;5033954;28;20037;-81
2022/06/07 04:51:06;;;;;;;6.47;3.08;;;;;;;10.25;100.00;100918.81;5030575;28;20056;-79
2022/06/07 04:53:31;;;;;;;6.78;3.17;;;;;;;10.27;100.00;100927.53;5042089;28;20496;-80
2022/06/07 04:55:59;;;;;;;6.93;3.47;;;;;;;10.29;100.00;100923.03;5023447;28;20043;-79
2022/06/07 04:58:26;;;;;;;7.20;3.40;;;;;;;10.28;100.00;100922.19;5033322;28;20140;-78
2022/06/07 05:00:51;;;;;;;6.60;3.88;;;;;;;10.25;100.00;100916.16;5038977;28;20668;-80
2022/06/07 05:03:17;;;;;;;4.50;3.30;;;;;;;10.22;100.00;100930.38;5039089;28;20052;-79
2022/06/07 05:05:42;;;;;;;5.05;2.85;;;;;;;10.18;100.00;100926.13;5037412;28;20071;-78
2022/06/07 05:08:08;;;;;;;5.93;3.03;;;;;;;10.15;100.00;100929.78;5043413;28;21878;-79
2022/06/07 05:10:33;;;;;;;7.50;3.85;;;;;;;10.14;100.00;100927.22;5043329;28;20685;-79
2022/06/07 05:12:59;;;;;;;8.48;3.45;;;;;;;10.12;100.00;100929.03;5043481;28;20028;-79
2022/06/07 05:15:24;;;;;;;4.68;3.20;;;;;;;10.12;100.00;100919.34;5040342;28;20041;-78
2022/06/07 05:17:50;;;;;;;5.88;3.28;;;;;;;10.11;100.00;100937.91;5046411;28;20546;-78
2022/06/07 05:20:15;;;;;;;8.45;3.13;;;;;;;10.12;100.00;100935.22;5043285;28;20577;-78
2022/06/07 05:22:41;;;;;;;7.05;3.75;;;;;;;10.12;100.00;100940.50;5043506;28;20036;-80
2022/06/07 05:25:07;;;;;;;7.13;3.45;;;;;;;10.12;100.00;100932.56;5046247;28;20032;-80
2022/06/07 05:27:38;;;;;;;8.52;4.22;;;;;;;10.16;100.00;100936.81;5047094;28;20032;-79
2022/06/07 05:30:05;;;;;;;8.35;3.28;;;;;;;10.18;100.00;100942.88;5050699;28;20032;-79
2022/06/07 05:32:30;;;;;;;6.88;3.90;;;;;;;10.19;100.00;100939.31;5020700;28;20036;-80
2022/06/07 05:34:56;;;;;;;6.40;3.58;;;;;;;10.21;100.00;100954.25;5043651;28;20557;-79
2022/06/07 05:37:22;;;;;;;6.63;3.42;;;;;;;10.24;100.00;100948.84;5044907;28;20033;-80
2022/06/07 05:39:48;;;;;;;9.80;4.03;;;;;;;10.24;100.00;100948.84;5020291;28;20416;-81
2022/06/07 05:42:15;;;;;;;7.57;3.60;;;;;;;10.24;100.00;100949.69;5017342;28;20040;-81
2022/06/07 05:44:41;;;;;;;5.40;3.42;;;;;;;10.24;100.00;100954.16;5046725;28;20706;-80
2022/06/07 05:47:08;;;;;;;6.50;3.80;;;;;;;10.24;100.00;100962.09;5012003;28;20159;-81
2022/06/07 05:49:33;;;;;;;7.57;2.97;;;;;;;10.25;100.00;100969.09;5028771;28;20044;-80
2022/06/07 05:52:01;;;;;;;5.05;2.63;;;;;;;10.24;100.00;100954.97;5047192;28;20086;-81
2022/06/07 05:54:31;;;;;;;3.63;2.33;;;;;;;10.27;100.00;100951.34;5044497;28;20260;-81
2022/06/07 05:56:57;;;;;;;5.85;2.10;;;;;;;10.27;100.00;100954.88;5061890;28;20094;-80
2022/06/07 05:59:22;;;;;;;3.25;1.85;;;;;;;10.26;100.00;100949.63;5046352;28;20049;-79
2022/06/07 06:01:48;;;;;;;2.95;1.85;;;;;;;10.24;100.00;100956.78;5043242;28;20544;-81
2022/06/07 06:04:13;;;;;;;3.42;2.00;;;;;;;10.23;100.00;100958.56;5046515;28;20059;-80
2022/06/07 06:06:39;;;;;;;3.97;1.52;;;;;;;10.23;100.00;100961.22;5047071;28;20082;-82
2022/06/07 06:11:50;;;;;;;7.80;1.80;;;;;;;10.22;100.00;100963.91;5041981;28;20163;-80
2022/06/07 06:14:17;;;;;;;7.05;1.55;;;;;;;10.21;100.00;100967.47;5040226;28;20442;-80
2022/06/07 06:16:42;;;;;;;3.88;1.75;;;;;;;10.21;100.00;100962.19;5038296;28;20032;-80
2022/06/07 06:19:08;;;;;;;9.45;3.17;;;;;;;10.24;100.00;100954.16;5046263;28;20044;-79
2022/06/07 06:21:38;;;;;;;5.75;2.03;;;;;;;10.28;100.00;100963.66;5044751;28;20066;-80
2022/06/07 06:24:04;;;;;;;5.10;2.60;;;;;;;10.30;100.00;100964.47;5044846;28;20036;-79
2022/06/07 06:26:30;;;;;;;7.90;2.95;;;;;;;10.35;100.00;100970.41;5045501;28;20213;-80
2022/06/07 06:28:56;;;;;;;4.20;2.55;;;;;;;10.40;100.00;100967.59;5043313;28;20260;-80
2022/06/07 06:31:22;;;;;;;7.80;2.10;;;;;;;10.42;100.00;100973.66;5037650;28;20763;-79
2022/06/07 06:33:49;;;;;;;5.53;1.90;;;;;;;10.46;100.00;100973.50;5043466;28;20032;-80
2022/06/07 06:36:18;;;;;;;4.72;2.15;;;;;;;10.51;100.00;100972.44;5043708;28;20024;-80
2022/06/07 06:38:44;;;;;;;6.95;2.10;;;;;;;10.54;100.00;100973.19;5016497;28;20127;-81
2022/06/07 06:41:12;;;;;;;5.13;2.30;;;;;;;10.58;100.00;100984.50;5031123;28;20067;-79
2022/06/07 06:43:38;;;;;;;3.30;1.92;;;;;;;10.64;100.00;100973.63;5044308;28;20114;-80
2022/06/07 06:46:09;;;;;;;7.00;2.40;;;;;;;10.69;100.00;100984.88;5040442;28;20035;-79
2022/06/07 06:48:35;;;;;;;6.05;2.00;;;;;;;10.77;100.00;100983.66;5044893;28;20166;-81
2022/06/07 06:51:04;;;;;;;7.72;1.67;;;;;;;10.82;100.00;100982.56;5018380;28;20048;-80
2022/06/07 06:53:33;;;;;;;9.02;2.60;;;;;;;10.85;100.00;100986.88;5044169;28;20043;-80
2022/06/07 06:55:59;;;;;;;5.03;2.35;;;;;;;10.88;100.00;100991.16;5037794;28;20089;-80
2022/06/07 06:58:25;;;;;;;3.83;2.42;;;;;;;10.91;100.00;100985.72;5004712;28;20468;-78
2022/06/07 07:01:02;;;;;;;6.47;2.78;;;;;;;10.94;100.00;100986.44;5039386;28;20064;-80
2022/06/07 07:03:28;;;;;;;3.58;2.30;;;;;;;10.99;100.00;101000.34;5043370;28;20557;-80
2022/06/07 07:05:56;;;;;;;5.95;1.83;;;;;;;11.03;100.00;100992.25;5042366;28;20063;-80
2022/06/07 07:08:24;;;;;;;5.80;2.30;;;;;;;11.09;100.00;100995.50;5021936;28;20028;-78
2022/06/07 07:10:49;;;;;;;9.40;2.50;;;;;;;11.16;100.00;101006.66;5031509;28;20028;-80
2022/06/07 07:13:15;;;;;;;8.40;2.78;;;;;;;11.21;100.00;101007.31;5040625;28;20043;-79
2022/06/07 07:15:46;;;;;;;5.35;1.98;;;;;;;11.23;100.00;101000.16;5010645;28;20095;-79
2022/06/07 07:18:13;;;;;;;3.55;1.60;;;;;;;11.28;100.00;101008.75;5030449;28;20087;-79
2022/06/07 07:20:40;;;;;;;3.80;1.77;;;;;;;11.33;100.00;100992.63;5042424;28;20044;-78
2022/06/07 07:23:05;;;;;;;3.58;1.83;;;;;;;11.42;100.00;101001.97;5041512;28;20068;-79
2022/06/07 07:25:32;;;;;;;7.10;1.55;;;;;;;11.47;100.00;101005.25;5040309;28;20462;-80
2022/06/07 07:27:58;;;;;;;10.13;1.88;;;;;;;11.52;100.00;101010.34;5042488;28;20037;-80
2022/06/07 07:30:23;;;;;;;7.75;1.42;;;;;;;11.57;100.00;101010.13;5040567;28;20051;-81
2022/06/07 07:32:49;;;;;;;4.43;1.33;;;;;;;11.57;100.00;101015.44;5042682;28;20149;-80
2022/06/07 07:35:17;;;;;;;3.83;1.10;;;;;;;11.61;100.00;101017.84;5051673;28;20043;-78
2022/06/07 07:37:43;;;;;;;3.47;1.00;;;;;;;11.68;100.00;101018.44;5055140;28;21517;-78
2022/06/07 07:40:09;;;;;;;3.47;1.30;;;;;;;11.72;100.00;101014.69;5046313;28;20586;-79
2022/06/07 07:42:35;;;;;;;4.05;1.10;;;;;;;11.77;100.00;101028.59;5014360;28;20041;-77
2022/06/07 07:45:00;;;;;;;2.75;1.10;;;;;;;11.79;100.00;101026.75;5043125;28;20024;-78
2022/06/07 07:47:26;;;;;;;2.33;1.00;;;;;;;11.80;100.00;101028.47;5031729;28;20395;-79
2022/06/07 07:49:53;;;;;;;2.60;1.38;;;;;;;11.82;100.00;101021.28;5040728;28;20029;-77
2022/06/07 07:52:19;;;;;;;5.40;1.58;;;;;;;11.87;100.00;101028.19;5038119;28;20064;-78
2022/06/07 07:54:45;;;;;;;4.55;1.10;;;;;;;11.88;100.00;101027.25;5030961;28;20032;-77
2022/06/07 07:57:11;;;;;;;4.47;1.65;;;;;;;11.87;100.00;101028.19;5039035;28;20490;-79
2022/06/07 07:59:36;;;;;;;5.03;1.35;;;;;;;11.90;100.00;101041.28;5042912;28;20085;-77
2022/06/07 08:02:02;;;;;;;8.50;1.55;;;;;;;11.94;100.00;101043.72;5044301;28;20545;-78
2022/06/07 08:04:28;;;;;;;3.70;1.10;;;;;;;11.97;100.00;101040.06;5017815;28;20033;-77
2022/06/07 08:06:54;;;;;;;9.90;1.42;;;;;;;11.98;100.00;101036.47;5043668;28;20086;-77
2022/06/07 08:09:22;;;;;;;5.30;1.30;;;;;;;12.00;100.00;101034.63;5017598;28;21588;-77
2022/06/07 08:11:48;;;;;;;6.53;1.33;;;;;;;12.01;100.00;101046.94;5036954;28;20391;-77
2022/06/07 08:14:18;;;;;;;4.35;1.10;;;;;;;11.98;100.00;101052.38;5042114;28;20175;-78
2022/06/07 08:16:44;;;;;;;4.22;1.20;;;;;;;11.99;100.00;101038.19;5043385;28;20115;-76
2022/06/07 08:19:10;;;;;;;4.22;1.30;;;;;;;12.02;100.00;101053.97;5025450;28;20443;-78
2022/06/07 08:21:37;;;;;;;4.75;1.10;;;;;;;12.04;100.00;101052.13;5020389;28;20534;-77
2022/06/07 08:24:04;;;;;;;1.88;1.15;;;;;;;12.04;100.00;101049.47;5039044;28;20066;-77
2022/06/07 08:26:31;;;;;;;5.13;1.65;;;;;;;12.03;100.00;101030.94;5041978;28;20114;-77
2022/06/07 08:28:56;;;;;;;8.50;1.80;;;;;;;12.05;100.00;101035.25;5026467;28;20032;-76
2022/06/07 08:31:25;;;;;;;4.80;1.30;;;;;;;12.15;100.00;101034.84;5021515;28;20102;-77
2022/06/07 08:39:21;;;;;;;4.45;1.67;;;;;;;12.52;100.00;101046.25;5042797;28;20697;-76
2022/06/07 08:41:52;;;;;;;4.25;1.08;;;;;;;12.68;100.00;101043.69;5017276;28;20036;-77
2022/06/07 08:44:44;;;;;;;5.47;1.25;;;;;;;12.90;100.00;101043.44;5022100;28;20051;-77
2022/06/07 08:47:35;;;;;;;4.10;1.10;;;;;;;13.02;100.00;101051.72;5028838;28;20037;-76
2022/06/07 08:50:10;;;;;;;2.28;1.00;;;;;;;13.03;100.00;101056.09;5045131;28;20082;-75
2022/06/07 08:52:36;;;;;;;3.10;1.00;;;;;;;13.06;100.00;101050.59;5043080;28;20099;-78
2022/06/07 08:55:11;;;;;;;2.25;1.00;;;;;;;13.09;100.00;101055.78;5045658;28;20037;-78
2022/06/07 08:57:36;;;;;;;2.05;0.93;;;;;;;13.13;100.00;101061.78;5028903;28;20035;-78
2022/06/07 09:00:14;;;;;;;2.38;1.00;;;;;;;13.09;100.00;101058.44;5028132;28;20064;-78
2022/06/07 09:03:06;;;;;;;3.58;0.82;;;;;;;13.07;100.00;101057.63;5046773;28;20053;-77
2022/06/07 09:05:32;;;;;;;1.07;0.73;;;;;;;13.04;100.00;101063.97;5051745;28;20060;-77
2022/06/07 09:07:58;;;;;;;2.65;0.80;;;;;;;12.98;100.00;101060.78;5045894;28;20124;-78
2022/06/07 09:13:15;;;;;;;5.05;0.80;;;;;;;12.88;100.00;101079.88;5046569;28;20032;-77
2022/06/07 09:15:41;;;;;;;1.33;0.98;;;;;;;12.86;100.00;101076.41;5046548;28;20024;-77
2022/06/07 09:18:07;;;;;;;2.83;1.00;;;;;;;12.86;100.00;101079.06;5061658;28;20044;-78
2022/06/07 09:20:39;;;;;;;3.53;1.33;;;;;;;12.87;100.00;101078.13;5044372;28;20403;-76
2022/06/07 09:23:24;;;;;;;2.22;0.75;;;;;;;12.89;100.00;101078.94;5028622;28;20136;-76
2022/06/07 09:25:51;;;;;;;1.52;0.70;;;;;;;12.90;100.00;101075.34;5045968;28;20037;-77
2022/06/07 09:28:26;;;;;;;2.28;0.80;;;;;;;12.95;100.00;101077.75;5035309;28;20037;-77
2022/06/07 09:31:15;;;;;;;1.95;0.80;;;;;;;13.02;100.00;101075.66;5040454;28;20032;-76
2022/06/07 09:33:51;;;;;;;2.42;0.77;;;;;;;13.04;100.00;101084.38;5043029;28;20151;-77
2022/06/07 09:36:38;;;;;;;2.05;0.70;;;;;;;13.15;100.00;101079.38;5044567;28;20045;-77
2022/06/07 09:39:16;;;;;;;1.52;0.82;;;;;;;13.30;100.00;101079.50;5044220;28;20035;-76
2022/06/07 09:41:52;;;;;;;1.75;0.73;;;;;;;13.44;100.00;101081.41;5028377;28;20053;-77
2022/06/07 09:44:25;;;;;;;2.88;1.00;;;;;;;13.58;100.00;101080.72;5044559;28;20032;-77
2022/06/07 09:47:11;;;;;;;1.70;0.80;;;;;;;13.72;100.00;101077.28;5041505;28;20029;-77
2022/06/07 09:49:43;;;;;;;1.60;0.77;;;;;;;13.83;100.00;101082.00;5042864;28;20028;-77
2022/06/07 09:52:14;;;;;;;1.15;0.77;;;;;;;13.88;100.00;101084.44;5042775;28;20610;-76
2022/06/07 09:54:42;;;;;;;1.52;0.70;;;;;;;13.84;100.00;101094.38;5043861;28;20047;-77
2022/06/07 09:57:35;;;;;;;1.10;0.70;;;;;;;13.78;100.00;101095.56;5026255;28;20025;-77
2022/06/07 10:00:22;;;;;;;2.38;0.90;;;;;;;13.76;100.00;101091.25;5018783;28;20051;-74
2022/06/07 10:03:02;;;;;;;2.65;1.00;;;;;;;13.73;100.00;101096.78;5028813;28;20055;-76
2022/06/07 10:05:40;;;;;;;2.65;0.90;;;;;;;13.67;100.00;101098.81;5043822;28;20553;-77
2022/06/07 10:08:27;;;;;;;1.27;0.60;;;;;;;13.68;100.00;101105.84;5043519;28;20179;-76
2022/06/07 10:11:12;;;;;;;1.10;0.50;;;;;;;13.70;98.71;101104.00;5044281;28;20495;-75
2022/06/07 10:13:56;;;;;;;2.67;0.82;;;;;;;13.74;100.00;101106.47;5040656;28;20025;-76
2022/06/07 10:16:44;;;;;;;1.15;0.60;;;;;;;13.74;97.23;101106.47;5043917;28;20516;-76
2022/06/07 10:19:24;;;;;;;1.73;0.80;;;;;;;13.73;99.88;101104.75;5034417;28;20287;-76
2022/06/07 10:22:28;;;;;;;1.58;0.60;;;;;;;13.69;97.68;101101.41;5033925;28;20033;-77
2022/06/07 10:25:09;;;;;;;1.45;0.80;;;;;;;13.63;99.10;101109.72;5045681;28;20044;-77
2022/06/07 10:27:42;;;;;;;2.38;0.90;;;;;;;13.57;98.33;101113.56;5044199;28;20047;-77
2022/06/07 10:30:19;;;;;;;2.90;0.90;;;;;;;13.55;100.00;101110.13;5050279;28;20131;-75
2022/06/07 10:32:53;;;;;;;2.10;0.80;;;;;;;13.54;99.05;101113.72;5012960;28;20029;-76
2022/06/07 10:35:23;;;;;;;2.05;0.70;;;;;;;13.53;98.45;101115.53;5040376;28;20048;-75
2022/06/07 10:38:03;;;;;;;1.73;1.27;;;;;;;13.50;97.24;101109.53;5045223;28;20036;-77
2022/06/07 10:40:39;;;;;;;2.25;1.10;;;;;;;13.50;98.63;101117.50;5016187;28;20632;-76
2022/06/07 10:43:14;;;;;;;3.35;1.02;;;;;;;13.48;95.26;101109.59;5040320;28;20115;-75
2022/06/07 10:45:40;;;;;;;1.10;0.80;;;;;;;13.52;99.37;101115.63;5033432;28;20447;-76
2022/06/07 10:48:23;;;;;;;3.55;1.13;;;;;;;13.53;98.37;101114.66;5038121;28;20047;-76
2022/06/07 10:50:55;;;;;;;1.55;0.93;;;;;;;13.57;98.81;101113.56;5013727;28;20099;-75
2022/06/07 10:53:26;;;;;;;1.13;1.00;;;;;;;13.61;97.43;101117.75;5041253;28;20043;-77
2022/06/07 10:56:11;;;;;;;1.60;0.93;;;;;;;13.68;97.24;101119.16;5030394;28;20037;-78
2022/06/07 10:58:46;;;;;;;4.18;1.15;;;;;;;13.77;96.86;101125.78;5053657;28;21506;-78
2022/06/07 11:01:40;;;;;;;2.67;0.95;;;;;;;13.89;95.77;101129.56;5013627;28;20053;-74
2022/06/07 11:10:02;;;;;;;3.22;0.70;;;;;;;14.11;94.75;101129.25;5015458;28;20040;-74
2022/06/07 11:12:48;;;;;;;3.05;1.30;;;;;;;14.15;94.79;101124.59;5038860;28;20400;-74
2022/06/07 11:15:38;;;;;;;2.55;0.80;;;;;;;14.15;91.62;101129.09;5026532;28;20512;-74
2022/06/07 11:18:11;;;;;;;3.42;1.00;;;;;;;14.03;92.56;101133.25;5012883;28;20029;-75
2022/06/07 11:20:51;;;;;;;2.10;0.85;;;;;;;13.94;94.46;101137.31;5018153;28;20079;-75
2022/06/07 11:23:25;;;;;;;4.05;1.05;;;;;;;13.92;95.93;101129.41;5038486;28;20047;-75
2022/06/07 11:26:13;;;;;;;3.15;1.08;;;;;;;13.93;94.91;101135.56;5031855;28;20470;-75
2022/06/07 11:28:39;;;;;;;2.95;1.15;;;;;;;13.94;95.99;101138.16;5032988;28;20637;-75
2022/06/07 11:31:23;;;;;;;5.43;1.15;;;;;;;13.94;94.36;101132.84;5043687;28;20037;-75
2022/06/07 11:33:52;;;;;;;2.25;0.90;;;;;;;13.94;95.54;101132.84;5041754;28;20948;-74
2022/06/07 11:36:20;;;;;;;2.53;0.90;;;;;;;13.98;96.36;101134.41;5043170;28;20033;-75
2022/06/07 11:38:58;;;;;;;3.55;1.65;;;;;;;14.05;93.25;101128.75;5043554;28;20130;-74
2022/06/07 11:41:38;;;;;;;3.63;0.82;;;;;;;14.19;94.43;101133.28;5037645;28;20591;-75
2022/06/07 11:44:10;;;;;;;1.67;0.93;;;;;;;14.31;92.50;101131.72;5032135;28;20032;-74
2022/06/07 11:46:39;;;;;;;0.80;0.80;;;;;;;14.46;94.66;101137.97;5042852;28;20040;-75
2022/06/07 11:49:27;;;;;;;2.10;0.77;;;;;;;14.50;90.85;101140.38;5038105;28;20654;-75
2022/06/07 11:52:13;;;;;;;1.60;0.70;;;;;;;14.48;91.26;101147.59;5033101;28;20067;-75
2022/06/07 11:54:54;;;;;;;1.23;0.77;;;;;;;14.42;89.59;101147.94;5043059;28;20040;-75